sensor_id;sensor_type;location;lat;lon;timestamp;temperature;humidity
11284;DHT22;5698;47.332;11.180;2023-02-01T00:00:01;0.50;95.80
11284;DHT22;5698;47.332;11.180;2023-02-01T00:02:27;0.60;95.50
11284;DHT22;5698;47.332;11.180;2023-02-01T00:04:54;0.50;95.60
11284;DHT22;5698;47.332;11.180;2023-02-01T00:07:22;0.60;95.30
11284;DHT22;5698;47.332;11.180;2023-02-01T00:09:50;0.60;94.80
11284;DHT22;5698;47.332;11.180;2023-02-01T00:12:17;0.60;94.90
11284;DHT22;5698;47.332;11.180;2023-02-01T00:14:44;0.70;94.60
11284;DHT22;5698;47.332;11.180;2023-02-01T00:17:14;0.60;94.20
11284;DHT22;5698;47.332;11.180;2023-02-01T00:19:41;0.60;94.30
11284;DHT22;5698;47.332;11.180;2023-02-01T00:22:08;0.50;94.50
11284;DHT22;5698;47.332;11.180;2023-02-01T00:24:35;0.50;94.70
11284;DHT22;5698;47.332;11.180;2023-02-01T00:27:03;0.40;94.70
11284;DHT22;5698;47.332;11.180;2023-02-01T00:29:30;0.50;94.30
11284;DHT22;5698;47.332;11.180;2023-02-01T00:31:57;0.40;94.40
11284;DHT22;5698;47.332;11.180;2023-02-01T00:34:24;0.30;94.10
11284;DHT22;5698;47.332;11.180;2023-02-01T00:36:51;0.30;94.10
11284;DHT22;5698;47.332;11.180;2023-02-01T00:39:18;0.30;94.40
11284;DHT22;5698;47.332;11.180;2023-02-01T00:41:45;0.20;94.30
11284;DHT22;5698;47.332;11.180;2023-02-01T00:44:14;0.20;94.40
11284;DHT22;5698;47.332;11.180;2023-02-01T00:46:41;0.10;94.20
11284;DHT22;5698;47.332;11.180;2023-02-01T00:49:08;0.10;94.20
11284;DHT22;5698;47.332;11.180;2023-02-01T00:51:35;0.10;94.70
11284;DHT22;5698;47.332;11.180;2023-02-01T00:54:02;0.10;95.20
11284;DHT22;5698;47.332;11.180;2023-02-01T00:56:29;0.00;94.90
11284;DHT22;5698;47.332;11.180;2023-02-01T00:58:57;0.00;94.90
11284;DHT22;5698;47.332;11.180;2023-02-01T01:01:26;0.00;94.70
11284;DHT22;5698;47.332;11.180;2023-02-01T01:03:56;-0.10;94.80
11284;DHT22;5698;47.332;11.180;2023-02-01T01:06:25;-0.10;94.90
11284;DHT22;5698;47.332;11.180;2023-02-01T01:08:53;-0.10;94.80
11284;DHT22;5698;47.332;11.180;2023-02-01T01:11:21;-0.10;95.00
11284;DHT22;5698;47.332;11.180;2023-02-01T01:13:49;-0.20;95.20
11284;DHT22;5698;47.332;11.180;2023-02-01T01:16:17;-0.20;95.10
11284;DHT22;5698;47.332;11.180;2023-02-01T01:18:46;-0.30;95.20
11284;DHT22;5698;47.332;11.180;2023-02-01T01:21:15;-0.30;95.30
11284;DHT22;5698;47.332;11.180;2023-02-01T01:23:43;-0.30;95.20
11284;DHT22;5698;47.332;11.180;2023-02-01T01:26:13;-0.40;95.40
11284;DHT22;5698;47.332;11.180;2023-02-01T01:28:40;-0.50;95.50
11284;DHT22;5698;47.332;11.180;2023-02-01T01:31:08;-0.50;95.20
11284;DHT22;5698;47.332;11.180;2023-02-01T01:33:35;-0.60;95.70
11284;DHT22;5698;47.332;11.180;2023-02-01T01:36:06;-0.60;96.10
11284;DHT22;5698;47.332;11.180;2023-02-01T01:38:35;-0.70;96.20
11284;DHT22;5698;47.332;11.180;2023-02-01T01:41:02;-0.80;96.30
11284;DHT22;5698;47.332;11.180;2023-02-01T01:43:47;-0.90;96.50
11284;DHT22;5698;47.332;11.180;2023-02-01T01:46:16;-0.90;96.70
11284;DHT22;5698;47.332;11.180;2023-02-01T01:48:44;-0.90;96.70
11284;DHT22;5698;47.332;11.180;2023-02-01T01:51:14;-0.90;96.70
11284;DHT22;5698;47.332;11.180;2023-02-01T01:53:47;-0.90;96.80
11284;DHT22;5698;47.332;11.180;2023-02-01T01:56:14;-1.00;96.80
11284;DHT22;5698;47.332;11.180;2023-02-01T01:58:42;-1.00;96.90
11284;DHT22;5698;47.332;11.180;2023-02-01T02:01:09;-0.90;96.90
11284;DHT22;5698;47.332;11.180;2023-02-01T02:03:39;-1.00;97.00
11284;DHT22;5698;47.332;11.180;2023-02-01T02:06:19;-1.00;97.00
11284;DHT22;5698;47.332;11.180;2023-02-01T02:08:48;-1.10;97.40
11284;DHT22;5698;47.332;11.180;2023-02-01T02:11:16;-1.20;97.20
11284;DHT22;5698;47.332;11.180;2023-02-01T02:13:46;-1.20;97.30
11284;DHT22;5698;47.332;11.180;2023-02-01T02:16:28;-1.10;97.30
11284;DHT22;5698;47.332;11.180;2023-02-01T02:19:22;-1.10;97.20
11284;DHT22;5698;47.332;11.180;2023-02-01T02:25:02;-1.20;97.30
11284;DHT22;5698;47.332;11.180;2023-02-01T02:27:40;-1.20;97.40
11284;DHT22;5698;47.332;11.180;2023-02-01T02:30:28;-1.30;97.50
11284;DHT22;5698;47.332;11.180;2023-02-01T02:36:00;-1.30;97.70
11284;DHT22;5698;47.332;11.180;2023-02-01T02:38:49;-1.30;97.70
11284;DHT22;5698;47.332;11.180;2023-02-01T02:41:20;-1.40;97.80
11284;DHT22;5698;47.332;11.180;2023-02-01T02:44:11;-1.40;97.80
11284;DHT22;5698;47.332;11.180;2023-02-01T02:47:02;-1.40;97.80
11284;DHT22;5698;47.332;11.180;2023-02-01T02:49:58;-1.40;97.90
11284;DHT22;5698;47.332;11.180;2023-02-01T02:52:51;-1.50;98.00
11284;DHT22;5698;47.332;11.180;2023-02-01T02:55:38;-1.50;98.10
11284;DHT22;5698;47.332;11.180;2023-02-01T02:58:07;-1.50;98.00
11284;DHT22;5698;47.332;11.180;2023-02-01T03:00:55;-1.50;98.00
11284;DHT22;5698;47.332;11.180;2023-02-01T03:03:40;-1.60;98.20
11284;DHT22;5698;47.332;11.180;2023-02-01T03:06:24;-1.70;98.20
11284;DHT22;5698;47.332;11.180;2023-02-01T03:08:54;-1.70;98.30
11284;DHT22;5698;47.332;11.180;2023-02-01T03:11:25;-1.70;98.30
11284;DHT22;5698;47.332;11.180;2023-02-01T03:14:15;-1.70;98.40
11284;DHT22;5698;47.332;11.180;2023-02-01T03:16:47;-1.70;98.40
11284;DHT22;5698;47.332;11.180;2023-02-01T03:19:20;-1.70;98.40
11284;DHT22;5698;47.332;11.180;2023-02-01T03:21:50;-1.70;98.40
11284;DHT22;5698;47.332;11.180;2023-02-01T03:24:23;-1.80;98.70
11284;DHT22;5698;47.332;11.180;2023-02-01T03:27:03;-1.80;98.60
11284;DHT22;5698;47.332;11.180;2023-02-01T03:29:38;-1.80;98.50
11284;DHT22;5698;47.332;11.180;2023-02-01T03:32:06;-1.80;98.60
11284;DHT22;5698;47.332;11.180;2023-02-01T03:34:35;-1.80;98.70
11284;DHT22;5698;47.332;11.180;2023-02-01T03:37:04;-1.80;98.70
11284;DHT22;5698;47.332;11.180;2023-02-01T03:39:36;-1.80;98.70
11284;DHT22;5698;47.332;11.180;2023-02-01T03:42:08;-1.90;98.70
11284;DHT22;5698;47.332;11.180;2023-02-01T03:44:40;-1.90;98.80
11284;DHT22;5698;47.332;11.180;2023-02-01T03:47:11;-1.90;98.80
11284;DHT22;5698;47.332;11.180;2023-02-01T03:49:42;-1.90;98.90
11284;DHT22;5698;47.332;11.180;2023-02-01T03:52:14;-1.90;98.80
11284;DHT22;5698;47.332;11.180;2023-02-01T03:54:43;-1.90;99.20
11284;DHT22;5698;47.332;11.180;2023-02-01T03:57:16;-2.00;98.80
11284;DHT22;5698;47.332;11.180;2023-02-01T03:59:46;-1.90;98.90
11284;DHT22;5698;47.332;11.180;2023-02-01T04:02:13;-1.90;98.80
11284;DHT22;5698;47.332;11.180;2023-02-01T04:04:40;-1.90;98.80
11284;DHT22;5698;47.332;11.180;2023-02-01T04:07:07;-1.90;98.80
11284;DHT22;5698;47.332;11.180;2023-02-01T04:09:34;-2.00;98.90
11284;DHT22;5698;47.332;11.180;2023-02-01T04:12:01;-2.00;98.90
11284;DHT22;5698;47.332;11.180;2023-02-01T04:14:29;-2.00;99.20
11284;DHT22;5698;47.332;11.180;2023-02-01T04:16:56;-2.00;99.00
11284;DHT22;5698;47.332;11.180;2023-02-01T04:19:23;-2.10;99.00
11284;DHT22;5698;47.332;11.180;2023-02-01T04:21:50;-2.10;99.10
11284;DHT22;5698;47.332;11.180;2023-02-01T04:24:17;-2.10;99.20
11284;DHT22;5698;47.332;11.180;2023-02-01T04:26:44;-2.20;99.20
11284;DHT22;5698;47.332;11.180;2023-02-01T04:29:12;-2.20;99.30
11284;DHT22;5698;47.332;11.180;2023-02-01T04:31:40;-2.20;99.20
11284;DHT22;5698;47.332;11.180;2023-02-01T04:34:07;-2.30;99.20
11284;DHT22;5698;47.332;11.180;2023-02-01T04:36:34;-2.40;99.70
11284;DHT22;5698;47.332;11.180;2023-02-01T04:39:01;-2.40;99.70
11284;DHT22;5698;47.332;11.180;2023-02-01T04:41:28;-2.40;99.70
11284;DHT22;5698;47.332;11.180;2023-02-01T04:43:55;-2.40;99.80
11284;DHT22;5698;47.332;11.180;2023-02-01T04:46:23;-2.40;99.90
11284;DHT22;5698;47.332;11.180;2023-02-01T04:48:51;-2.50;99.90
11284;DHT22;5698;47.332;11.180;2023-02-01T04:51:18;-2.50;99.90
11284;DHT22;5698;47.332;11.180;2023-02-01T04:53:45;-2.50;99.90
11284;DHT22;5698;47.332;11.180;2023-02-01T04:56:12;-2.50;99.90
11284;DHT22;5698;47.332;11.180;2023-02-01T04:58:39;-2.50;99.90
11284;DHT22;5698;47.332;11.180;2023-02-01T05:01:07;-2.50;99.90
11284;DHT22;5698;47.332;11.180;2023-02-01T05:03:35;-2.50;99.90
11284;DHT22;5698;47.332;11.180;2023-02-01T05:06:03;-2.50;99.90
11284;DHT22;5698;47.332;11.180;2023-02-01T05:08:31;-2.50;99.90
11284;DHT22;5698;47.332;11.180;2023-02-01T05:10:58;-2.50;99.90
11284;DHT22;5698;47.332;11.180;2023-02-01T05:13:28;-2.60;99.90
11284;DHT22;5698;47.332;11.180;2023-02-01T05:16:13;-2.60;99.90
11284;DHT22;5698;47.332;11.180;2023-02-01T05:18:40;-2.70;99.90
11284;DHT22;5698;47.332;11.180;2023-02-01T05:21:08;-2.70;99.90
11284;DHT22;5698;47.332;11.180;2023-02-01T05:23:35;-2.70;99.90
11284;DHT22;5698;47.332;11.180;2023-02-01T05:26:23;-2.70;99.90
11284;DHT22;5698;47.332;11.180;2023-02-01T05:28:50;-2.80;99.90
11284;DHT22;5698;47.332;11.180;2023-02-01T05:31:17;-2.80;99.90
11284;DHT22;5698;47.332;11.180;2023-02-01T05:33:45;-2.80;99.90
11284;DHT22;5698;47.332;11.180;2023-02-01T05:36:13;-2.90;99.90
11284;DHT22;5698;47.332;11.180;2023-02-01T05:38:40;-3.00;99.90
11284;DHT22;5698;47.332;11.180;2023-02-01T05:41:07;-2.90;99.90
11284;DHT22;5698;47.332;11.180;2023-02-01T05:43:35;-3.00;99.90
11284;DHT22;5698;47.332;11.180;2023-02-01T05:46:02;-3.10;99.90
11284;DHT22;5698;47.332;11.180;2023-02-01T05:48:29;-3.00;99.90
11284;DHT22;5698;47.332;11.180;2023-02-01T05:50:56;-3.00;99.90
11284;DHT22;5698;47.332;11.180;2023-02-01T05:53:24;-2.90;99.90
11284;DHT22;5698;47.332;11.180;2023-02-01T05:55:51;-2.90;99.90
11284;DHT22;5698;47.332;11.180;2023-02-01T05:58:18;-2.90;99.90
11284;DHT22;5698;47.332;11.180;2023-02-01T06:00:45;-2.80;99.90
11284;DHT22;5698;47.332;11.180;2023-02-01T06:03:12;-2.80;99.90
11284;DHT22;5698;47.332;11.180;2023-02-01T06:05:39;-2.80;99.90
11284;DHT22;5698;47.332;11.180;2023-02-01T06:08:06;-2.70;99.90
11284;DHT22;5698;47.332;11.180;2023-02-01T06:10:36;-2.80;99.90
11284;DHT22;5698;47.332;11.180;2023-02-01T06:13:03;-2.70;99.90
11284;DHT22;5698;47.332;11.180;2023-02-01T06:15:31;-2.70;99.90
11284;DHT22;5698;47.332;11.180;2023-02-01T06:17:58;-2.70;99.90
11284;DHT22;5698;47.332;11.180;2023-02-01T06:20:25;-2.70;99.90
11284;DHT22;5698;47.332;11.180;2023-02-01T06:22:52;-2.70;99.90
11284;DHT22;5698;47.332;11.180;2023-02-01T06:25:19;-2.70;99.90
11284;DHT22;5698;47.332;11.180;2023-02-01T06:27:47;-2.70;99.90
11284;DHT22;5698;47.332;11.180;2023-02-01T06:30:15;-2.70;99.90
11284;DHT22;5698;47.332;11.180;2023-02-01T06:32:42;-2.70;99.90
11284;DHT22;5698;47.332;11.180;2023-02-01T06:35:10;-2.70;99.90
11284;DHT22;5698;47.332;11.180;2023-02-01T06:37:42;-2.50;99.90
11284;DHT22;5698;47.332;11.180;2023-02-01T06:40:10;-2.50;99.90
11284;DHT22;5698;47.332;11.180;2023-02-01T06:42:37;-2.50;99.90
11284;DHT22;5698;47.332;11.180;2023-02-01T06:45:07;-2.50;99.90
11284;DHT22;5698;47.332;11.180;2023-02-01T06:47:34;-2.50;99.90
11284;DHT22;5698;47.332;11.180;2023-02-01T06:50:01;-2.50;99.90
11284;DHT22;5698;47.332;11.180;2023-02-01T06:52:28;-2.50;99.90
11284;DHT22;5698;47.332;11.180;2023-02-01T06:54:55;-2.50;99.90
11284;DHT22;5698;47.332;11.180;2023-02-01T06:57:22;-2.50;99.90
11284;DHT22;5698;47.332;11.180;2023-02-01T06:59:49;-2.40;99.90
11284;DHT22;5698;47.332;11.180;2023-02-01T07:02:17;-2.50;99.90
11284;DHT22;5698;47.332;11.180;2023-02-01T07:04:45;-2.50;99.90
11284;DHT22;5698;47.332;11.180;2023-02-01T07:07:12;-2.50;99.90
11284;DHT22;5698;47.332;11.180;2023-02-01T07:09:39;-2.40;99.90
11284;DHT22;5698;47.332;11.180;2023-02-01T07:12:06;-2.50;99.90
11284;DHT22;5698;47.332;11.180;2023-02-01T07:14:34;-2.50;99.90
11284;DHT22;5698;47.332;11.180;2023-02-01T07:17:01;-2.50;99.90
11284;DHT22;5698;47.332;11.180;2023-02-01T07:19:29;-2.50;99.90
11284;DHT22;5698;47.332;11.180;2023-02-01T07:21:56;-2.50;99.90
11284;DHT22;5698;47.332;11.180;2023-02-01T07:24:23;-2.50;99.90
11284;DHT22;5698;47.332;11.180;2023-02-01T07:26:50;-2.50;99.90
11284;DHT22;5698;47.332;11.180;2023-02-01T07:29:17;-2.50;99.90
11284;DHT22;5698;47.332;11.180;2023-02-01T07:31:45;-2.40;99.90
11284;DHT22;5698;47.332;11.180;2023-02-01T07:34:12;-2.40;99.90
11284;DHT22;5698;47.332;11.180;2023-02-01T07:36:41;-2.40;99.90
11284;DHT22;5698;47.332;11.180;2023-02-01T07:39:08;-2.40;99.90
11284;DHT22;5698;47.332;11.180;2023-02-01T07:41:35;-2.30;99.90
11284;DHT22;5698;47.332;11.180;2023-02-01T07:44:02;-2.20;99.90
11284;DHT22;5698;47.332;11.180;2023-02-01T07:46:29;-2.20;99.90
11284;DHT22;5698;47.332;11.180;2023-02-01T07:48:56;-2.10;99.90
11284;DHT22;5698;47.332;11.180;2023-02-01T07:51:23;-2.10;99.90
11284;DHT22;5698;47.332;11.180;2023-02-01T07:53:52;-2.00;99.90
11284;DHT22;5698;47.332;11.180;2023-02-01T07:56:20;-1.90;99.90
11284;DHT22;5698;47.332;11.180;2023-02-01T07:58:48;-1.90;99.90
11284;DHT22;5698;47.332;11.180;2023-02-01T08:01:16;-1.80;99.90
11284;DHT22;5698;47.332;11.180;2023-02-01T08:03:46;-1.80;99.90
11284;DHT22;5698;47.332;11.180;2023-02-01T08:06:14;-1.80;99.90
11284;DHT22;5698;47.332;11.180;2023-02-01T08:08:41;-1.70;99.90
11284;DHT22;5698;47.332;11.180;2023-02-01T08:11:12;-1.60;99.90
11284;DHT22;5698;47.332;11.180;2023-02-01T08:13:39;-1.60;99.90
11284;DHT22;5698;47.332;11.180;2023-02-01T08:16:08;-1.50;99.90
11284;DHT22;5698;47.332;11.180;2023-02-01T08:18:37;-1.50;99.90
11284;DHT22;5698;47.332;11.180;2023-02-01T08:21:05;-1.50;99.90
11284;DHT22;5698;47.332;11.180;2023-02-01T08:23:33;-1.40;99.90
11284;DHT22;5698;47.332;11.180;2023-02-01T08:26:07;-1.30;99.90
11284;DHT22;5698;47.332;11.180;2023-02-01T08:28:36;-1.30;99.90
11284;DHT22;5698;47.332;11.180;2023-02-01T08:31:05;-1.20;99.90
11284;DHT22;5698;47.332;11.180;2023-02-01T08:33:33;-1.10;99.90
11284;DHT22;5698;47.332;11.180;2023-02-01T08:36:01;-1.10;99.90
11284;DHT22;5698;47.332;11.180;2023-02-01T08:38:29;-1.00;99.90
11284;DHT22;5698;47.332;11.180;2023-02-01T08:40:56;-0.90;99.90
11284;DHT22;5698;47.332;11.180;2023-02-01T08:43:24;-0.80;99.90
11284;DHT22;5698;47.332;11.180;2023-02-01T08:45:55;-0.70;99.90
11284;DHT22;5698;47.332;11.180;2023-02-01T08:48:22;-0.60;99.90
11284;DHT22;5698;47.332;11.180;2023-02-01T08:50:49;-0.50;99.90
11284;DHT22;5698;47.332;11.180;2023-02-01T08:53:16;-0.50;99.90
11284;DHT22;5698;47.332;11.180;2023-02-01T08:55:45;-0.40;99.90
11284;DHT22;5698;47.332;11.180;2023-02-01T08:58:13;-0.30;99.90
11284;DHT22;5698;47.332;11.180;2023-02-01T09:00:42;-0.20;99.90
11284;DHT22;5698;47.332;11.180;2023-02-01T09:03:12;0.00;99.90
11284;DHT22;5698;47.332;11.180;2023-02-01T09:05:39;0.00;99.90
11284;DHT22;5698;47.332;11.180;2023-02-01T09:08:06;0.10;99.90
11284;DHT22;5698;47.332;11.180;2023-02-01T09:10:34;0.20;99.90
11284;DHT22;5698;47.332;11.180;2023-02-01T09:13:01;0.30;99.90
11284;DHT22;5698;47.332;11.180;2023-02-01T09:15:28;0.30;99.90
11284;DHT22;5698;47.332;11.180;2023-02-01T09:17:55;0.40;99.90
11284;DHT22;5698;47.332;11.180;2023-02-01T09:20:24;0.50;99.90
11284;DHT22;5698;47.332;11.180;2023-02-01T09:22:51;0.50;99.90
11284;DHT22;5698;47.332;11.180;2023-02-01T09:25:18;0.60;99.90
11284;DHT22;5698;47.332;11.180;2023-02-01T09:27:45;0.70;99.90
11284;DHT22;5698;47.332;11.180;2023-02-01T09:30:12;0.80;99.90
11284;DHT22;5698;47.332;11.180;2023-02-01T09:32:40;0.80;99.90
11284;DHT22;5698;47.332;11.180;2023-02-01T09:35:07;0.90;99.90
11284;DHT22;5698;47.332;11.180;2023-02-01T09:37:36;0.90;99.90
11284;DHT22;5698;47.332;11.180;2023-02-01T09:40:04;1.00;99.90
11284;DHT22;5698;47.332;11.180;2023-02-01T09:42:45;1.10;99.90
11284;DHT22;5698;47.332;11.180;2023-02-01T09:45:20;1.10;99.90
11284;DHT22;5698;47.332;11.180;2023-02-01T09:47:53;1.20;99.90
11284;DHT22;5698;47.332;11.180;2023-02-01T09:50:25;1.30;99.90
11284;DHT22;5698;47.332;11.180;2023-02-01T09:53:00;1.30;99.90
11284;DHT22;5698;47.332;11.180;2023-02-01T09:55:35;1.40;99.90
11284;DHT22;5698;47.332;11.180;2023-02-01T09:58:07;1.40;99.90
11284;DHT22;5698;47.332;11.180;2023-02-01T10:00:37;1.50;99.90
11284;DHT22;5698;47.332;11.180;2023-02-01T10:03:10;1.50;99.90
11284;DHT22;5698;47.332;11.180;2023-02-01T10:05:59;1.60;99.90
11284;DHT22;5698;47.332;11.180;2023-02-01T10:08:37;1.60;99.90
11284;DHT22;5698;47.332;11.180;2023-02-01T10:11:17;1.70;99.90
11284;DHT22;5698;47.332;11.180;2023-02-01T10:13:54;1.80;99.90
11284;DHT22;5698;47.332;11.180;2023-02-01T10:16:32;1.80;99.90
11284;DHT22;5698;47.332;11.180;2023-02-01T10:19:16;1.90;99.90
11284;DHT22;5698;47.332;11.180;2023-02-01T10:21:54;1.90;99.90
11284;DHT22;5698;47.332;11.180;2023-02-01T10:24:40;1.90;99.90
11284;DHT22;5698;47.332;11.180;2023-02-01T10:27:13;1.90;99.90
11284;DHT22;5698;47.332;11.180;2023-02-01T10:29:43;1.90;99.90
11284;DHT22;5698;47.332;11.180;2023-02-01T10:32:16;2.00;99.90
11284;DHT22;5698;47.332;11.180;2023-02-01T10:34:47;2.00;99.90
11284;DHT22;5698;47.332;11.180;2023-02-01T10:37:24;2.10;99.90
11284;DHT22;5698;47.332;11.180;2023-02-01T10:39:54;2.10;99.90
11284;DHT22;5698;47.332;11.180;2023-02-01T10:42:25;2.10;99.90
11284;DHT22;5698;47.332;11.180;2023-02-01T10:44:54;2.20;99.90
11284;DHT22;5698;47.332;11.180;2023-02-01T10:47:23;2.20;98.70
11284;DHT22;5698;47.332;11.180;2023-02-01T10:49:55;2.30;99.70
11284;DHT22;5698;47.332;11.180;2023-02-01T10:52:35;2.30;99.70
11284;DHT22;5698;47.332;11.180;2023-02-01T10:55:27;2.40;99.40
11284;DHT22;5698;47.332;11.180;2023-02-01T10:57:56;2.50;99.70
11284;DHT22;5698;47.332;11.180;2023-02-01T11:00:24;2.60;99.60
11284;DHT22;5698;47.332;11.180;2023-02-01T11:02:52;2.60;99.60
11284;DHT22;5698;47.332;11.180;2023-02-01T11:05:20;2.70;99.50
11284;DHT22;5698;47.332;11.180;2023-02-01T11:07:50;2.80;99.00
11284;DHT22;5698;47.332;11.180;2023-02-01T11:10:38;2.80;98.90
11284;DHT22;5698;47.332;11.180;2023-02-01T11:13:13;2.90;98.60
11284;DHT22;5698;47.332;11.180;2023-02-01T11:15:43;3.00;98.60
11284;DHT22;5698;47.332;11.180;2023-02-01T11:18:17;3.00;98.70
11284;DHT22;5698;47.332;11.180;2023-02-01T11:20:46;3.10;99.00
11284;DHT22;5698;47.332;11.180;2023-02-01T11:23:16;3.10;99.20
11284;DHT22;5698;47.332;11.180;2023-02-01T11:25:50;3.20;99.20
11284;DHT22;5698;47.332;11.180;2023-02-01T11:28:21;3.30;99.10
11284;DHT22;5698;47.332;11.180;2023-02-01T11:30:52;3.30;99.00
11284;DHT22;5698;47.332;11.180;2023-02-01T11:33:26;3.40;98.90
11284;DHT22;5698;47.332;11.180;2023-02-01T11:35:56;3.40;98.90
11284;DHT22;5698;47.332;11.180;2023-02-01T11:38:27;3.40;98.60
11284;DHT22;5698;47.332;11.180;2023-02-01T11:41:11;3.50;98.80
11284;DHT22;5698;47.332;11.180;2023-02-01T11:43:51;3.50;97.40
11284;DHT22;5698;47.332;11.180;2023-02-01T11:46:19;3.50;97.20
11284;DHT22;5698;47.332;11.180;2023-02-01T11:48:51;3.50;97.80
11284;DHT22;5698;47.332;11.180;2023-02-01T11:51:34;3.60;97.60
11284;DHT22;5698;47.332;11.180;2023-02-01T11:54:17;3.60;97.90
11284;DHT22;5698;47.332;11.180;2023-02-01T11:56:58;3.60;97.90
11284;DHT22;5698;47.332;11.180;2023-02-01T11:59:37;3.60;97.10
11284;DHT22;5698;47.332;11.180;2023-02-01T12:02:29;3.70;97.00
11284;DHT22;5698;47.332;11.180;2023-02-01T12:05:18;3.60;96.10
11284;DHT22;5698;47.332;11.180;2023-02-01T12:08:15;3.60;96.10
11284;DHT22;5698;47.332;11.180;2023-02-01T12:10:50;3.60;97.50
11284;DHT22;5698;47.332;11.180;2023-02-01T12:13:31;3.70;97.10
11284;DHT22;5698;47.332;11.180;2023-02-01T12:16:11;3.70;97.40
11284;DHT22;5698;47.332;11.180;2023-02-01T12:18:53;3.80;97.50
11284;DHT22;5698;47.332;11.180;2023-02-01T12:21:36;3.80;97.50
11284;DHT22;5698;47.332;11.180;2023-02-01T12:24:32;3.90;97.50
11284;DHT22;5698;47.332;11.180;2023-02-01T12:27:15;3.90;95.90
11284;DHT22;5698;47.332;11.180;2023-02-01T12:30:11;3.90;96.50
11284;DHT22;5698;47.332;11.180;2023-02-01T12:32:53;3.90;96.80
11284;DHT22;5698;47.332;11.180;2023-02-01T12:35:44;4.00;95.00
11284;DHT22;5698;47.332;11.180;2023-02-01T12:38:35;4.00;95.30
11284;DHT22;5698;47.332;11.180;2023-02-01T12:44:00;4.10;96.30
11284;DHT22;5698;47.332;11.180;2023-02-01T12:46:37;4.10;95.40
11284;DHT22;5698;47.332;11.180;2023-02-01T12:49:11;4.20;95.70
11284;DHT22;5698;47.332;11.180;2023-02-01T12:51:42;4.30;94.60
11284;DHT22;5698;47.332;11.180;2023-02-01T12:54:16;4.30;94.20
11284;DHT22;5698;47.332;11.180;2023-02-01T12:56:47;4.30;94.50
11284;DHT22;5698;47.332;11.180;2023-02-01T12:59:20;4.30;94.60
11284;DHT22;5698;47.332;11.180;2023-02-01T13:01:54;4.30;94.20
11284;DHT22;5698;47.332;11.180;2023-02-01T13:04:29;4.20;93.40
11284;DHT22;5698;47.332;11.180;2023-02-01T13:07:03;4.20;93.80
11284;DHT22;5698;47.332;11.180;2023-02-01T13:09:37;4.20;93.90
11284;DHT22;5698;47.332;11.180;2023-02-01T13:12:11;4.10;93.60
11284;DHT22;5698;47.332;11.180;2023-02-01T13:14:42;3.90;93.90
11284;DHT22;5698;47.332;11.180;2023-02-01T13:17:16;3.80;93.90
11284;DHT22;5698;47.332;11.180;2023-02-01T13:19:50;3.80;94.50
11284;DHT22;5698;47.332;11.180;2023-02-01T13:22:23;3.80;95.30
11284;DHT22;5698;47.332;11.180;2023-02-01T13:24:54;3.80;95.20
11284;DHT22;5698;47.332;11.180;2023-02-01T13:27:22;3.80;94.10
11284;DHT22;5698;47.332;11.180;2023-02-01T13:29:56;3.80;94.90
11284;DHT22;5698;47.332;11.180;2023-02-01T13:32:48;3.80;95.20
11284;DHT22;5698;47.332;11.180;2023-02-01T13:35:55;3.80;95.70
11284;DHT22;5698;47.332;11.180;2023-02-01T13:39:03;3.80;95.70
11284;DHT22;5698;47.332;11.180;2023-02-01T13:41:39;3.80;95.50
11284;DHT22;5698;47.332;11.180;2023-02-01T13:44:13;3.80;95.60
11284;DHT22;5698;47.332;11.180;2023-02-01T13:46:42;3.80;94.10
11284;DHT22;5698;47.332;11.180;2023-02-01T13:49:19;3.70;93.80
11284;DHT22;5698;47.332;11.180;2023-02-01T13:51:50;3.50;93.60
11284;DHT22;5698;47.332;11.180;2023-02-01T13:54:31;3.50;94.10
11284;DHT22;5698;47.332;11.180;2023-02-01T13:57:00;3.40;94.50
11284;DHT22;5698;47.332;11.180;2023-02-01T13:59:52;3.40;94.10
11284;DHT22;5698;47.332;11.180;2023-02-01T14:05:57;3.20;95.80
11284;DHT22;5698;47.332;11.180;2023-02-01T14:08:40;3.10;95.20
11284;DHT22;5698;47.332;11.180;2023-02-01T14:11:32;3.10;94.90
11284;DHT22;5698;47.332;11.180;2023-02-01T14:23:30;3.00;95.30
11284;DHT22;5698;47.332;11.180;2023-02-01T14:26:20;3.00;94.80
11284;DHT22;5698;47.332;11.180;2023-02-01T14:29:00;3.00;95.70
11284;DHT22;5698;47.332;11.180;2023-02-01T14:31:47;2.80;95.10
11284;DHT22;5698;47.332;11.180;2023-02-01T14:34:19;2.80;95.70
11284;DHT22;5698;47.332;11.180;2023-02-01T14:36:51;2.80;95.10
11284;DHT22;5698;47.332;11.180;2023-02-01T14:39:38;2.80;95.50
11284;DHT22;5698;47.332;11.180;2023-02-01T14:42:20;2.80;95.20
11284;DHT22;5698;47.332;11.180;2023-02-01T14:44:49;2.80;95.00
11284;DHT22;5698;47.332;11.180;2023-02-01T14:47:32;2.80;95.00
11284;DHT22;5698;47.332;11.180;2023-02-01T14:50:32;2.70;95.70
11284;DHT22;5698;47.332;11.180;2023-02-01T14:53:13;2.60;95.70
11284;DHT22;5698;47.332;11.180;2023-02-01T14:55:45;2.60;95.40
11284;DHT22;5698;47.332;11.180;2023-02-01T14:58:18;2.50;95.20
11284;DHT22;5698;47.332;11.180;2023-02-01T15:00:52;2.50;95.10
11284;DHT22;5698;47.332;11.180;2023-02-01T15:03:47;2.40;95.30
11284;DHT22;5698;47.332;11.180;2023-02-01T15:06:36;2.40;95.70
11284;DHT22;5698;47.332;11.180;2023-02-01T15:09:08;2.40;96.00
11284;DHT22;5698;47.332;11.180;2023-02-01T15:11:56;2.30;96.20
11284;DHT22;5698;47.332;11.180;2023-02-01T15:14:24;2.30;96.30
11284;DHT22;5698;47.332;11.180;2023-02-01T15:16:51;2.30;96.50
11284;DHT22;5698;47.332;11.180;2023-02-01T15:19:21;2.30;96.40
11284;DHT22;5698;47.332;11.180;2023-02-01T15:21:51;2.20;96.60
11284;DHT22;5698;47.332;11.180;2023-02-01T15:24:23;2.20;96.80
11284;DHT22;5698;47.332;11.180;2023-02-01T15:26:51;2.10;96.80
11284;DHT22;5698;47.332;11.180;2023-02-01T15:29:20;2.00;97.10
11284;DHT22;5698;47.332;11.180;2023-02-01T15:31:50;2.00;97.30
11284;DHT22;5698;47.332;11.180;2023-02-01T15:34:17;1.90;97.70
11284;DHT22;5698;47.332;11.180;2023-02-01T15:36:45;1.90;97.70
11284;DHT22;5698;47.332;11.180;2023-02-01T15:39:21;1.90;97.90
11284;DHT22;5698;47.332;11.180;2023-02-01T15:41:54;1.80;98.00
11284;DHT22;5698;47.332;11.180;2023-02-01T15:44:34;1.90;98.20
11284;DHT22;5698;47.332;11.180;2023-02-01T15:47:08;1.70;98.40
11284;DHT22;5698;47.332;11.180;2023-02-01T15:49:41;1.60;98.90
11284;DHT22;5698;47.332;11.180;2023-02-01T15:52:24;1.50;98.90
11284;DHT22;5698;47.332;11.180;2023-02-01T15:54:55;1.50;99.20
11284;DHT22;5698;47.332;11.180;2023-02-01T15:57:25;1.50;99.00
11284;DHT22;5698;47.332;11.180;2023-02-01T15:59:58;1.50;99.00
11284;DHT22;5698;47.332;11.180;2023-02-01T16:02:29;1.50;98.80
11284;DHT22;5698;47.332;11.180;2023-02-01T16:04:59;1.60;98.80
11284;DHT22;5698;47.332;11.180;2023-02-01T16:07:30;1.60;98.80
11284;DHT22;5698;47.332;11.180;2023-02-01T16:10:00;1.50;99.20
11284;DHT22;5698;47.332;11.180;2023-02-01T16:12:33;1.30;99.20
11284;DHT22;5698;47.332;11.180;2023-02-01T16:15:03;1.30;99.30
11284;DHT22;5698;47.332;11.180;2023-02-01T16:17:30;1.30;99.40
11284;DHT22;5698;47.332;11.180;2023-02-01T16:19:57;1.30;99.40
11284;DHT22;5698;47.332;11.180;2023-02-01T16:22:25;1.20;99.50
11284;DHT22;5698;47.332;11.180;2023-02-01T16:24:52;1.20;99.60
11284;DHT22;5698;47.332;11.180;2023-02-01T16:27:19;1.20;99.70
11284;DHT22;5698;47.332;11.180;2023-02-01T16:29:47;1.20;99.90